sensor_id;sensor_type;location;lat;lon;timestamp;temperature;humidity
22742;DHT22;11538;48.884;8.696;2023-03-16T00:02:10;2.60;99.90
22742;DHT22;11538;48.884;8.696;2023-03-16T00:04:37;2.60;99.90
22742;DHT22;11538;48.884;8.696;2023-03-16T00:07:06;2.60;99.90
22742;DHT22;11538;48.884;8.696;2023-03-16T00:09:39;2.60;99.90
22742;DHT22;11538;48.884;8.696;2023-03-16T00:12:17;2.60;99.90
22742;DHT22;11538;48.884;8.696;2023-03-16T00:14:46;2.50;99.90
22742;DHT22;11538;48.884;8.696;2023-03-16T00:17:17;2.50;99.90
22742;DHT22;11538;48.884;8.696;2023-03-16T00:20:14;2.50;99.90
22742;DHT22;11538;48.884;8.696;2023-03-16T00:22:43;2.50;99.90
22742;DHT22;11538;48.884;8.696;2023-03-16T00:25:12;2.50;99.90
22742;DHT22;11538;48.884;8.696;2023-03-16T00:27:40;2.50;99.90
22742;DHT22;11538;48.884;8.696;2023-03-16T00:30:07;2.50;99.90
22742;DHT22;11538;48.884;8.696;2023-03-16T00:32:36;2.60;99.90
22742;DHT22;11538;48.884;8.696;2023-03-16T00:35:04;2.60;99.90
22742;DHT22;11538;48.884;8.696;2023-03-16T00:37:35;2.60;99.90
22742;DHT22;11538;48.884;8.696;2023-03-16T00:40:03;2.60;99.90
22742;DHT22;11538;48.884;8.696;2023-03-16T00:42:33;2.60;99.90
22742;DHT22;11538;48.884;8.696;2023-03-16T00:45:00;2.60;99.90
22742;DHT22;11538;48.884;8.696;2023-03-16T00:47:32;2.60;99.90
22742;DHT22;11538;48.884;8.696;2023-03-16T00:50:00;2.60;99.90
22742;DHT22;11538;48.884;8.696;2023-03-16T00:52:28;2.60;99.90
22742;DHT22;11538;48.884;8.696;2023-03-16T00:54:55;2.60;99.90
22742;DHT22;11538;48.884;8.696;2023-03-16T00:57:24;2.50;99.90
22742;DHT22;11538;48.884;8.696;2023-03-16T00:59:51;2.50;99.90
22742;DHT22;11538;48.884;8.696;2023-03-16T01:02:19;2.50;99.90
22742;DHT22;11538;48.884;8.696;2023-03-16T01:04:49;2.50;99.90
22742;DHT22;11538;48.884;8.696;2023-03-16T01:07:18;2.50;99.90
22742;DHT22;11538;48.884;8.696;2023-03-16T01:09:45;2.50;99.90
22742;DHT22;11538;48.884;8.696;2023-03-16T01:12:16;2.50;99.90
22742;DHT22;11538;48.884;8.696;2023-03-16T01:14:45;2.40;99.90
22742;DHT22;11538;48.884;8.696;2023-03-16T01:17:13;2.40;99.90
22742;DHT22;11538;48.884;8.696;2023-03-16T01:19:42;2.40;99.90
22742;DHT22;11538;48.884;8.696;2023-03-16T01:22:10;2.40;99.90
22742;DHT22;11538;48.884;8.696;2023-03-16T01:24:38;2.40;99.90
22742;DHT22;11538;48.884;8.696;2023-03-16T01:27:07;2.40;99.90
22742;DHT22;11538;48.884;8.696;2023-03-16T01:29:34;2.40;99.90
22742;DHT22;11538;48.884;8.696;2023-03-16T01:32:05;2.40;99.90
22742;DHT22;11538;48.884;8.696;2023-03-16T01:34:33;2.40;99.90
22742;DHT22;11538;48.884;8.696;2023-03-16T01:37:00;2.40;99.90
22742;DHT22;11538;48.884;8.696;2023-03-16T01:39:27;2.40;99.90
22742;DHT22;11538;48.884;8.696;2023-03-16T01:41:54;2.40;99.90
22742;DHT22;11538;48.884;8.696;2023-03-16T01:44:26;2.40;99.90
22742;DHT22;11538;48.884;8.696;2023-03-16T01:46:58;2.40;99.90
22742;DHT22;11538;48.884;8.696;2023-03-16T01:49:32;2.30;99.90
22742;DHT22;11538;48.884;8.696;2023-03-16T01:52:07;2.30;99.90
22742;DHT22;11538;48.884;8.696;2023-03-16T01:54:45;2.30;99.90
22742;DHT22;11538;48.884;8.696;2023-03-16T01:57:19;2.30;99.90
22742;DHT22;11538;48.884;8.696;2023-03-16T01:59:49;2.30;99.90
22742;DHT22;11538;48.884;8.696;2023-03-16T02:02:21;2.30;99.90
22742;DHT22;11538;48.884;8.696;2023-03-16T02:05:32;2.30;99.90
22742;DHT22;11538;48.884;8.696;2023-03-16T02:07:59;2.30;99.90
22742;DHT22;11538;48.884;8.696;2023-03-16T02:10:28;2.30;99.90
22742;DHT22;11538;48.884;8.696;2023-03-16T02:12:57;2.20;99.90
22742;DHT22;11538;48.884;8.696;2023-03-16T02:15:24;2.10;99.90
22742;DHT22;11538;48.884;8.696;2023-03-16T02:17:55;2.00;99.90
22742;DHT22;11538;48.884;8.696;2023-03-16T02:20:35;2.00;99.90
22742;DHT22;11538;48.884;8.696;2023-03-16T02:23:20;2.00;99.90
22742;DHT22;11538;48.884;8.696;2023-03-16T02:31:58;1.80;99.90
22742;DHT22;11538;48.884;8.696;2023-03-16T02:34:28;1.80;99.90
22742;DHT22;11538;48.884;8.696;2023-03-16T02:36:56;1.80;99.90
22742;DHT22;11538;48.884;8.696;2023-03-16T02:39:24;1.80;99.90
22742;DHT22;11538;48.884;8.696;2023-03-16T02:41:51;1.80;99.90
22742;DHT22;11538;48.884;8.696;2023-03-16T02:44:34;1.80;99.90
22742;DHT22;11538;48.884;8.696;2023-03-16T02:47:08;1.80;99.90
22742;DHT22;11538;48.884;8.696;2023-03-16T02:49:42;1.80;99.90
22742;DHT22;11538;48.884;8.696;2023-03-16T02:52:11;1.80;99.90
22742;DHT22;11538;48.884;8.696;2023-03-16T02:54:38;1.70;99.90
22742;DHT22;11538;48.884;8.696;2023-03-16T02:57:06;1.70;99.90
22742;DHT22;11538;48.884;8.696;2023-03-16T02:59:33;1.70;99.90
22742;DHT22;11538;48.884;8.696;2023-03-16T03:02:00;1.60;99.90
22742;DHT22;11538;48.884;8.696;2023-03-16T03:04:27;1.60;99.90
22742;DHT22;11538;48.884;8.696;2023-03-16T03:06:54;1.60;99.90
22742;DHT22;11538;48.884;8.696;2023-03-16T03:09:21;1.60;99.90
22742;DHT22;11538;48.884;8.696;2023-03-16T03:11:47;1.60;99.90
22742;DHT22;11538;48.884;8.696;2023-03-16T03:14:16;1.70;99.90
22742;DHT22;11538;48.884;8.696;2023-03-16T03:16:42;1.70;99.90
22742;DHT22;11538;48.884;8.696;2023-03-16T03:19:12;1.70;99.90
22742;DHT22;11538;48.884;8.696;2023-03-16T03:21:40;1.70;99.90
22742;DHT22;11538;48.884;8.696;2023-03-16T03:24:08;1.70;99.90
22742;DHT22;11538;48.884;8.696;2023-03-16T03:26:35;1.70;99.90
22742;DHT22;11538;48.884;8.696;2023-03-16T03:29:05;1.70;99.90
22742;DHT22;11538;48.884;8.696;2023-03-16T03:31:32;1.70;99.90
22742;DHT22;11538;48.884;8.696;2023-03-16T03:33:58;1.70;99.90
22742;DHT22;11538;48.884;8.696;2023-03-16T03:36:33;1.70;99.90
22742;DHT22;11538;48.884;8.696;2023-03-16T03:39:01;1.80;99.90
22742;DHT22;11538;48.884;8.696;2023-03-16T03:41:31;1.80;99.90
22742;DHT22;11538;48.884;8.696;2023-03-16T03:43:59;1.80;99.90
22742;DHT22;11538;48.884;8.696;2023-03-16T03:46:26;1.90;99.90
22742;DHT22;11538;48.884;8.696;2023-03-16T03:48:53;1.80;99.90
22742;DHT22;11538;48.884;8.696;2023-03-16T03:51:20;1.90;99.90
22742;DHT22;11538;48.884;8.696;2023-03-16T03:53:47;1.90;99.90
22742;DHT22;11538;48.884;8.696;2023-03-16T03:56:14;1.90;99.90
22742;DHT22;11538;48.884;8.696;2023-03-16T03:58:40;1.90;99.90
22742;DHT22;11538;48.884;8.696;2023-03-16T04:01:07;1.90;99.90
22742;DHT22;11538;48.884;8.696;2023-03-16T04:03:34;1.90;99.90
22742;DHT22;11538;48.884;8.696;2023-03-16T04:06:01;1.90;99.90
22742;DHT22;11538;48.884;8.696;2023-03-16T04:08:28;1.90;99.90
22742;DHT22;11538;48.884;8.696;2023-03-16T04:10:55;1.90;99.90
22742;DHT22;11538;48.884;8.696;2023-03-16T04:13:22;1.80;99.90
22742;DHT22;11538;48.884;8.696;2023-03-16T04:15:54;1.80;99.90
22742;DHT22;11538;48.884;8.696;2023-03-16T04:18:22;1.80;99.90
22742;DHT22;11538;48.884;8.696;2023-03-16T04:20:50;1.80;99.90
22742;DHT22;11538;48.884;8.696;2023-03-16T04:23:19;1.80;99.90
22742;DHT22;11538;48.884;8.696;2023-03-16T04:25:47;1.80;99.90
22742;DHT22;11538;48.884;8.696;2023-03-16T04:28:14;1.80;99.90
22742;DHT22;11538;48.884;8.696;2023-03-16T04:30:43;1.80;99.90
22742;DHT22;11538;48.884;8.696;2023-03-16T04:33:10;1.80;99.90
22742;DHT22;11538;48.884;8.696;2023-03-16T04:35:37;1.80;99.90
22742;DHT22;11538;48.884;8.696;2023-03-16T04:38:04;1.80;99.90
22742;DHT22;11538;48.884;8.696;2023-03-16T04:40:31;1.80;99.90
22742;DHT22;11538;48.884;8.696;2023-03-16T04:42:58;1.80;99.90
22742;DHT22;11538;48.884;8.696;2023-03-16T04:45:25;1.80;99.90
22742;DHT22;11538;48.884;8.696;2023-03-16T04:47:52;1.90;99.90
22742;DHT22;11538;48.884;8.696;2023-03-16T04:50:19;1.90;99.90
22742;DHT22;11538;48.884;8.696;2023-03-16T04:52:47;1.90;99.90
22742;DHT22;11538;48.884;8.696;2023-03-16T04:55:14;1.90;99.90
22742;DHT22;11538;48.884;8.696;2023-03-16T04:57:41;2.00;99.90
22742;DHT22;11538;48.884;8.696;2023-03-16T05:00:09;2.00;99.90
22742;DHT22;11538;48.884;8.696;2023-03-16T05:02:45;2.00;99.90
22742;DHT22;11538;48.884;8.696;2023-03-16T05:05:14;2.00;99.90
22742;DHT22;11538;48.884;8.696;2023-03-16T05:07:42;2.00;99.90
22742;DHT22;11538;48.884;8.696;2023-03-16T05:10:12;2.00;99.90
22742;DHT22;11538;48.884;8.696;2023-03-16T05:12:41;2.10;99.90
22742;DHT22;11538;48.884;8.696;2023-03-16T05:15:08;2.10;99.90
22742;DHT22;11538;48.884;8.696;2023-03-16T05:17:36;2.20;99.90
22742;DHT22;11538;48.884;8.696;2023-03-16T05:20:03;2.10;99.90
22742;DHT22;11538;48.884;8.696;2023-03-16T05:22:34;2.20;99.90
22742;DHT22;11538;48.884;8.696;2023-03-16T05:25:01;2.20;99.90
22742;DHT22;11538;48.884;8.696;2023-03-16T05:27:30;2.20;99.90
22742;DHT22;11538;48.884;8.696;2023-03-16T05:29:57;2.20;99.90
22742;DHT22;11538;48.884;8.696;2023-03-16T05:32:23;2.20;99.90
22742;DHT22;11538;48.884;8.696;2023-03-16T05:34:50;2.30;99.90
22742;DHT22;11538;48.884;8.696;2023-03-16T05:37:18;2.20;99.90
22742;DHT22;11538;48.884;8.696;2023-03-16T05:39:46;2.20;99.90
22742;DHT22;11538;48.884;8.696;2023-03-16T05:42:13;2.30;99.90
22742;DHT22;11538;48.884;8.696;2023-03-16T05:44:40;2.30;99.90
22742;DHT22;11538;48.884;8.696;2023-03-16T05:47:07;2.30;99.90
22742;DHT22;11538;48.884;8.696;2023-03-16T05:49:34;2.20;99.90
22742;DHT22;11538;48.884;8.696;2023-03-16T05:52:00;2.30;99.90
22742;DHT22;11538;48.884;8.696;2023-03-16T05:54:27;2.20;99.90
22742;DHT22;11538;48.884;8.696;2023-03-16T05:56:54;2.30;99.90
22742;DHT22;11538;48.884;8.696;2023-03-16T05:59:21;2.30;99.90
22742;DHT22;11538;48.884;8.696;2023-03-16T06:01:48;2.30;99.90
22742;DHT22;11538;48.884;8.696;2023-03-16T06:04:15;2.30;99.90
22742;DHT22;11538;48.884;8.696;2023-03-16T06:06:42;2.30;99.90
22742;DHT22;11538;48.884;8.696;2023-03-16T06:09:09;2.30;99.90
22742;DHT22;11538;48.884;8.696;2023-03-16T06:11:36;2.30;99.90
22742;DHT22;11538;48.884;8.696;2023-03-16T06:14:03;2.30;99.90
22742;DHT22;11538;48.884;8.696;2023-03-16T06:16:30;2.30;99.90
22742;DHT22;11538;48.884;8.696;2023-03-16T06:18:57;2.30;99.90
22742;DHT22;11538;48.884;8.696;2023-03-16T06:21:25;2.30;99.90
22742;DHT22;11538;48.884;8.696;2023-03-16T06:23:52;2.30;99.90
22742;DHT22;11538;48.884;8.696;2023-03-16T06:26:19;2.30;99.90
22742;DHT22;11538;48.884;8.696;2023-03-16T06:28:47;2.30;99.90
22742;DHT22;11538;48.884;8.696;2023-03-16T06:31:20;2.30;99.90
22742;DHT22;11538;48.884;8.696;2023-03-16T06:33:47;2.30;99.90
22742;DHT22;11538;48.884;8.696;2023-03-16T06:36:14;2.40;99.90
22742;DHT22;11538;48.884;8.696;2023-03-16T06:38:41;2.40;99.90
22742;DHT22;11538;48.884;8.696;2023-03-16T06:41:08;2.40;99.90
22742;DHT22;11538;48.884;8.696;2023-03-16T06:43:35;2.50;99.90
22742;DHT22;11538;48.884;8.696;2023-03-16T06:46:03;2.50;99.90
22742;DHT22;11538;48.884;8.696;2023-03-16T06:48:30;2.60;99.90
22742;DHT22;11538;48.884;8.696;2023-03-16T06:50:57;2.60;99.90
22742;DHT22;11538;48.884;8.696;2023-03-16T06:53:23;2.60;99.90
22742;DHT22;11538;48.884;8.696;2023-03-16T06:55:50;2.60;99.90
22742;DHT22;11538;48.884;8.696;2023-03-16T06:58:17;2.70;99.90
22742;DHT22;11538;48.884;8.696;2023-03-16T07:00:44;2.70;99.90
22742;DHT22;11538;48.884;8.696;2023-03-16T07:03:11;2.80;99.90
22742;DHT22;11538;48.884;8.696;2023-03-16T07:05:39;2.80;99.90
22742;DHT22;11538;48.884;8.696;2023-03-16T07:08:06;2.90;99.90
22742;DHT22;11538;48.884;8.696;2023-03-16T07:10:36;2.90;99.90
22742;DHT22;11538;48.884;8.696;2023-03-16T07:13:03;3.00;99.90
22742;DHT22;11538;48.884;8.696;2023-03-16T07:15:30;3.00;99.90
22742;DHT22;11538;48.884;8.696;2023-03-16T07:17:57;3.00;99.90
22742;DHT22;11538;48.884;8.696;2023-03-16T07:20:24;3.00;99.90
22742;DHT22;11538;48.884;8.696;2023-03-16T07:22:52;3.00;99.90
22742;DHT22;11538;48.884;8.696;2023-03-16T07:25:19;3.10;99.90
22742;DHT22;11538;48.884;8.696;2023-03-16T07:27:47;3.10;99.90
22742;DHT22;11538;48.884;8.696;2023-03-16T07:30:17;3.20;99.90
22742;DHT22;11538;48.884;8.696;2023-03-16T07:32:44;3.30;99.90
22742;DHT22;11538;48.884;8.696;2023-03-16T07:35:11;3.40;99.90
22742;DHT22;11538;48.884;8.696;2023-03-16T07:37:39;3.40;99.90
22742;DHT22;11538;48.884;8.696;2023-03-16T07:40:06;3.50;99.90
22742;DHT22;11538;48.884;8.696;2023-03-16T07:42:35;3.60;99.90
22742;DHT22;11538;48.884;8.696;2023-03-16T07:45:03;3.70;99.90
22742;DHT22;11538;48.884;8.696;2023-03-16T07:47:31;3.80;99.90
22742;DHT22;11538;48.884;8.696;2023-03-16T07:49:59;3.90;99.90
22742;DHT22;11538;48.884;8.696;2023-03-16T07:52:27;4.00;99.90
22742;DHT22;11538;48.884;8.696;2023-03-16T07:54:54;4.00;99.90
22742;DHT22;11538;48.884;8.696;2023-03-16T07:57:21;4.10;99.90
22742;DHT22;11538;48.884;8.696;2023-03-16T07:59:48;4.30;99.90
22742;DHT22;11538;48.884;8.696;2023-03-16T08:02:17;4.40;99.90
22742;DHT22;11538;48.884;8.696;2023-03-16T08:04:45;4.50;99.90
22742;DHT22;11538;48.884;8.696;2023-03-16T08:07:14;4.70;99.90
22742;DHT22;11538;48.884;8.696;2023-03-16T08:09:41;4.80;99.90
22742;DHT22;11538;48.884;8.696;2023-03-16T08:12:09;5.00;99.90
22742;DHT22;11538;48.884;8.696;2023-03-16T08:14:37;5.10;99.90
22742;DHT22;11538;48.884;8.696;2023-03-16T08:17:05;5.30;99.90
22742;DHT22;11538;48.884;8.696;2023-03-16T08:19:35;5.50;99.90
22742;DHT22;11538;48.884;8.696;2023-03-16T08:22:01;5.70;99.90
22742;DHT22;11538;48.884;8.696;2023-03-16T08:24:30;5.80;99.90
22742;DHT22;11538;48.884;8.696;2023-03-16T08:26:59;6.00;99.90
22742;DHT22;11538;48.884;8.696;2023-03-16T08:29:26;6.20;99.90
22742;DHT22;11538;48.884;8.696;2023-03-16T08:31:59;6.40;99.90
22742;DHT22;11538;48.884;8.696;2023-03-16T08:34:27;6.60;99.90
22742;DHT22;11538;48.884;8.696;2023-03-16T08:36:54;6.80;99.90
22742;DHT22;11538;48.884;8.696;2023-03-16T08:39:21;7.10;99.90
22742;DHT22;11538;48.884;8.696;2023-03-16T08:41:48;7.30;99.90
22742;DHT22;11538;48.884;8.696;2023-03-16T08:44:15;7.50;99.90
22742;DHT22;11538;48.884;8.696;2023-03-16T08:46:45;7.60;99.90
22742;DHT22;11538;48.884;8.696;2023-03-16T08:49:12;7.80;99.90
22742;DHT22;11538;48.884;8.696;2023-03-16T08:51:40;8.00;99.90
22742;DHT22;11538;48.884;8.696;2023-03-16T08:54:10;8.20;99.90
22742;DHT22;11538;48.884;8.696;2023-03-16T08:56:37;8.40;99.90
22742;DHT22;11538;48.884;8.696;2023-03-16T08:59:04;8.60;99.90
22742;DHT22;11538;48.884;8.696;2023-03-16T09:01:32;8.70;99.90
22742;DHT22;11538;48.884;8.696;2023-03-16T09:04:00;8.80;99.90
22742;DHT22;11538;48.884;8.696;2023-03-16T09:06:26;9.00;99.90
22742;DHT22;11538;48.884;8.696;2023-03-16T09:08:54;9.20;99.90
22742;DHT22;11538;48.884;8.696;2023-03-16T09:11:22;9.40;99.90
22742;DHT22;11538;48.884;8.696;2023-03-16T09:13:49;9.50;99.90
22742;DHT22;11538;48.884;8.696;2023-03-16T09:16:19;9.70;99.90
22742;DHT22;11538;48.884;8.696;2023-03-16T09:18:46;9.80;99.90
22742;DHT22;11538;48.884;8.696;2023-03-16T09:21:13;9.90;99.90
22742;DHT22;11538;48.884;8.696;2023-03-16T09:23:40;10.00;99.90
22742;DHT22;11538;48.884;8.696;2023-03-16T09:26:08;10.20;99.90
22742;DHT22;11538;48.884;8.696;2023-03-16T09:28:38;10.30;99.90
22742;DHT22;11538;48.884;8.696;2023-03-16T09:31:08;10.40;99.90
22742;DHT22;11538;48.884;8.696;2023-03-16T09:33:42;10.40;99.90
22742;DHT22;11538;48.884;8.696;2023-03-16T09:36:09;10.40;99.90
22742;DHT22;11538;48.884;8.696;2023-03-16T09:38:40;10.40;99.90
22742;DHT22;11538;48.884;8.696;2023-03-16T09:41:25;10.40;99.90
22742;DHT22;11538;48.884;8.696;2023-03-16T09:46:49;10.50;99.90
22742;DHT22;11538;48.884;8.696;2023-03-16T09:49:29;10.60;99.90
22742;DHT22;11538;48.884;8.696;2023-03-16T09:57:36;11.10;99.90
22742;DHT22;11538;48.884;8.696;2023-03-16T10:00:35;11.20;99.90
22742;DHT22;11538;48.884;8.696;2023-03-16T10:05:58;11.50;99.90
22742;DHT22;11538;48.884;8.696;2023-03-16T10:08:39;11.50;99.90
22742;DHT22;11538;48.884;8.696;2023-03-16T10:11:29;11.60;99.90
22742;DHT22;11538;48.884;8.696;2023-03-16T10:14:40;11.70;99.90
22742;DHT22;11538;48.884;8.696;2023-03-16T10:17:34;11.80;99.90
22742;DHT22;11538;48.884;8.696;2023-03-16T10:20:07;11.90;99.90
22742;DHT22;11538;48.884;8.696;2023-03-16T10:22:45;12.00;99.90
22742;DHT22;11538;48.884;8.696;2023-03-16T10:28:20;12.30;99.90
22742;DHT22;11538;48.884;8.696;2023-03-16T10:30:52;12.40;99.90
22742;DHT22;11538;48.884;8.696;2023-03-16T10:38:56;12.80;99.90
22742;DHT22;11538;48.884;8.696;2023-03-16T10:41:31;13.00;99.90
22742;DHT22;11538;48.884;8.696;2023-03-16T10:46:57;13.30;99.90
22742;DHT22;11538;48.884;8.696;2023-03-16T10:49:42;13.40;99.90
22742;DHT22;11538;48.884;8.696;2023-03-16T10:52:41;13.40;99.90
22742;DHT22;11538;48.884;8.696;2023-03-16T10:57:51;13.60;99.90
22742;DHT22;11538;48.884;8.696;2023-03-16T11:00:26;13.70;99.90
22742;DHT22;11538;48.884;8.696;2023-03-16T11:02:58;13.90;99.90
22742;DHT22;11538;48.884;8.696;2023-03-16T11:05:32;14.10;99.90
22742;DHT22;11538;48.884;8.696;2023-03-16T11:08:27;14.30;99.90
22742;DHT22;11538;48.884;8.696;2023-03-16T11:11:17;14.40;99.90
22742;DHT22;11538;48.884;8.696;2023-03-16T11:13:56;14.60;99.90
22742;DHT22;11538;48.884;8.696;2023-03-16T11:19:32;15.00;99.90
22742;DHT22;11538;48.884;8.696;2023-03-16T11:22:21;15.20;99.90
22742;DHT22;11538;48.884;8.696;2023-03-16T11:27:34;15.50;99.90
22742;DHT22;11538;48.884;8.696;2023-03-16T11:30:21;15.60;99.90
22742;DHT22;11538;48.884;8.696;2023-03-16T11:33:00;15.80;99.90
22742;DHT22;11538;48.884;8.696;2023-03-16T11:35:49;16.20;99.90
22742;DHT22;11538;48.884;8.696;2023-03-16T11:41:12;16.80;99.90
22742;DHT22;11538;48.884;8.696;2023-03-16T11:43:51;16.80;99.90
22742;DHT22;11538;48.884;8.696;2023-03-16T11:46:25;16.70;99.90
22742;DHT22;11538;48.884;8.696;2023-03-16T11:54:34;16.50;99.90
22742;DHT22;11538;48.884;8.696;2023-03-16T12:06:33;16.80;99.90
22742;DHT22;11538;48.884;8.696;2023-03-16T12:12:17;17.20;99.90
22742;DHT22;11538;48.884;8.696;2023-03-16T12:18:22;17.00;99.90
22742;DHT22;11538;48.884;8.696;2023-03-16T12:21:38;17.00;99.90
22742;DHT22;11538;48.884;8.696;2023-03-16T12:24:15;17.50;99.90
22742;DHT22;11538;48.884;8.696;2023-03-16T12:26:45;18.10;99.90
22742;DHT22;11538;48.884;8.696;2023-03-16T12:32:08;19.10;99.90
22742;DHT22;11538;48.884;8.696;2023-03-16T12:35:19;19.60;99.90
22742;DHT22;11538;48.884;8.696;2023-03-16T12:46:33;20.00;99.90
22742;DHT22;11538;48.884;8.696;2023-03-16T12:49:14;20.10;99.90
22742;DHT22;11538;48.884;8.696;2023-03-16T12:51:42;20.10;99.90
22742;DHT22;11538;48.884;8.696;2023-03-16T12:54:23;20.20;99.90
22742;DHT22;11538;48.884;8.696;2023-03-16T12:56:52;20.50;99.90
22742;DHT22;11538;48.884;8.696;2023-03-16T12:59:40;20.70;99.90
22742;DHT22;11538;48.884;8.696;2023-03-16T13:02:18;21.00;99.90
22742;DHT22;11538;48.884;8.696;2023-03-16T13:05:00;21.20;99.90
22742;DHT22;11538;48.884;8.696;2023-03-16T13:07:49;21.40;99.90
22742;DHT22;11538;48.884;8.696;2023-03-16T13:10:29;21.50;99.90
22742;DHT22;11538;48.884;8.696;2023-03-16T13:13:10;21.60;99.90
22742;DHT22;11538;48.884;8.696;2023-03-16T13:15:40;21.70;99.90
22742;DHT22;11538;48.884;8.696;2023-03-16T13:20:52;21.80;99.90
22742;DHT22;11538;48.884;8.696;2023-03-16T13:29:24;22.50;99.90
22742;DHT22;11538;48.884;8.696;2023-03-16T13:31:58;22.60;99.90
22742;DHT22;11538;48.884;8.696;2023-03-16T13:34:30;22.70;99.90
22742;DHT22;11538;48.884;8.696;2023-03-16T13:37:00;22.80;99.90
22742;DHT22;11538;48.884;8.696;2023-03-16T13:39:29;22.60;99.90
22742;DHT22;11538;48.884;8.696;2023-03-16T13:42:19;22.60;99.90
22742;DHT22;11538;48.884;8.696;2023-03-16T13:44:51;22.60;99.90
22742;DHT22;11538;48.884;8.696;2023-03-16T13:47:19;22.60;99.90
22742;DHT22;11538;48.884;8.696;2023-03-16T13:49:49;22.60;99.90
22742;DHT22;11538;48.884;8.696;2023-03-16T13:52:29;22.60;99.90
22742;DHT22;11538;48.884;8.696;2023-03-16T13:55:06;22.60;99.90
22742;DHT22;11538;48.884;8.696;2023-03-16T13:57:42;22.40;99.90
22742;DHT22;11538;48.884;8.696;2023-03-16T14:00:19;22.20;99.90
22742;DHT22;11538;48.884;8.696;2023-03-16T14:02:53;22.30;99.90
22742;DHT22;11538;48.884;8.696;2023-03-16T14:05:29;22.40;99.90
22742;DHT22;11538;48.884;8.696;2023-03-16T14:07:58;22.60;99.90
22742;DHT22;11538;48.884;8.696;2023-03-16T14:10:33;22.60;99.90
22742;DHT22;11538;48.884;8.696;2023-03-16T14:19:15;22.20;99.90
22742;DHT22;11538;48.884;8.696;2023-03-16T14:21:29;22.20;99.90
22742;DHT22;11538;48.884;8.696;2023-03-16T14:24:02;22.00;99.90
22742;DHT22;11538;48.884;8.696;2023-03-16T14:26:42;21.80;99.90
22742;DHT22;11538;48.884;8.696;2023-03-16T14:29:29;21.50;99.90
22742;DHT22;11538;48.884;8.696;2023-03-16T14:31:57;21.10;99.90
22742;DHT22;11538;48.884;8.696;2023-03-16T14:34:37;20.70;99.90
22742;DHT22;11538;48.884;8.696;2023-03-16T14:37:12;20.20;99.90
22742;DHT22;11538;48.884;8.696;2023-03-16T14:39:45;19.80;99.90
22742;DHT22;11538;48.884;8.696;2023-03-16T14:42:29;19.50;99.90
22742;DHT22;11538;48.884;8.696;2023-03-16T14:44:59;19.30;99.90
22742;DHT22;11538;48.884;8.696;2023-03-16T14:47:29;18.90;99.90
22742;DHT22;11538;48.884;8.696;2023-03-16T14:50:05;18.70;99.90
22742;DHT22;11538;48.884;8.696;2023-03-16T14:52:35;18.40;99.90
22742;DHT22;11538;48.884;8.696;2023-03-16T14:55:11;18.10;99.90
22742;DHT22;11538;48.884;8.696;2023-03-16T14:57:41;17.90;99.90
22742;DHT22;11538;48.884;8.696;2023-03-16T15:00:14;17.60;99.90
22742;DHT22;11538;48.884;8.696;2023-03-16T15:02:44;17.40;99.90
22742;DHT22;11538;48.884;8.696;2023-03-16T15:05:29;17.20;99.90
22742;DHT22;11538;48.884;8.696;2023-03-16T15:08:31;16.90;99.90
22742;DHT22;11538;48.884;8.696;2023-03-16T15:11:04;16.60;99.90
22742;DHT22;11538;48.884;8.696;2023-03-16T15:13:32;16.50;99.90
22742;DHT22;11538;48.884;8.696;2023-03-16T15:16:06;16.40;99.90
22742;DHT22;11538;48.884;8.696;2023-03-16T15:18:37;16.30;99.90
22742;DHT22;11538;48.884;8.696;2023-03-16T15:21:12;16.20;99.90
22742;DHT22;11538;48.884;8.696;2023-03-16T15:23:43;16.10;99.90
22742;DHT22;11538;48.884;8.696;2023-03-16T15:26:12;16.00;99.90
22742;DHT22;11538;48.884;8.696;2023-03-16T15:28:42;15.90;99.90
22742;DHT22;11538;48.884;8.696;2023-03-16T15:31:12;15.70;99.90
22742;DHT22;11538;48.884;8.696;2023-03-16T15:33:42;15.60;99.90
22742;DHT22;11538;48.884;8.696;2023-03-16T15:36:14;15.60;99.90
22742;DHT22;11538;48.884;8.696;2023-03-16T15:38:45;15.50;99.90
22742;DHT22;11538;48.884;8.696;2023-03-16T15:41:14;15.40;99.90
22742;DHT22;11538;48.884;8.696;2023-03-16T15:43:44;15.40;99.90
22742;DHT22;11538;48.884;8.696;2023-03-16T15:46:12;15.30;99.90
22742;DHT22;11538;48.884;8.696;2023-03-16T15:48:40;15.20;99.90
22742;DHT22;11538;48.884;8.696;2023-03-16T15:51:20;15.10;99.90
22742;DHT22;11538;48.884;8.696;2023-03-16T15:53:57;15.10;99.90
22742;DHT22;11538;48.884;8.696;2023-03-16T15:56:30;15.00;99.90
22742;DHT22;11538;48.884;8.696;2023-03-16T15:59:13;14.90;99.90
22742;DHT22;11538;48.884;8.696;2023-03-16T16:01:45;14.90;99.90
22742;DHT22;11538;48.884;8.696;2023-03-16T16:04:19;14.80;99.90
22742;DHT22;11538;48.884;8.696;2023-03-16T16:06:50;14.80;99.90
22742;DHT22;11538;48.884;8.696;2023-03-16T16:09:21;14.70;99.90
22742;DHT22;11538;48.884;8.696;2023-03-16T16:11:48;14.70;99.90
22742;DHT22;11538;48.884;8.696;2023-03-16T16:14:21;14.60;99.90
22742;DHT22;11538;48.884;8.696;2023-03-16T16:16:51;14.60;99.90
22742;DHT22;11538;48.884;8.696;2023-03-16T16:19:20;14.60;99.90
22742;DHT22;11538;48.884;8.696;2023-03-16T16:21:49;14.50;99.90
22742;DHT22;11538;48.884;8.696;2023-03-16T16:24:16;14.40;99.90
22742;DHT22;11538;48.884;8.696;2023-03-16T16:26:45;14.40;99.90
22742;DHT22;11538;48.884;8.696;2023-03-16T16:29:29;14.30;99.90
22742;DHT22;11538;48.884;8.696;2023-03-16T16:32:00;14.30;99.90
22742;DHT22;11538;48.884;8.696;2023-03-16T16:34:31;14.20;99.90
22742;DHT22;11538;48.884;8.696;2023-03-16T16:36:57;14.20;99.90
22742;DHT22;11538;48.884;8.696;2023-03-16T16:39:25;14.10;99.90
22742;DHT22;11538;48.884;8.696;2023-03-16T16:41:54;14.00;99.90
22742;DHT22;11538;48.884;8.696;2023-03-16T16:44:24;14.00;99.90
22742;DHT22;11538;48.884;8.696;2023-03-16T16:46:57;14.00;99.90
22742;DHT22;11538;48.884;8.696;2023-03-16T16:49:26;13.90;99.90
22742;DHT22;11538;48.884;8.696;2023-03-16T16:51:57;13.90;99.90
22742;DHT22;11538;48.884;8.696;2023-03-16T16:54:27;13.80;99.90
22742;DHT22;11538;48.884;8.696;2023-03-16T16:56:57;13.70;99.90
22742;DHT22;11538;48.884;8.696;2023-03-16T16:59:32;13.60;99.90
22742;DHT22;11538;48.884;8.696;2023-03-16T17:02:17;13.60;99.90
22742;DHT22;11538;48.884;8.696;2023-03-16T17:04:48;13.50;99.90
22742;DHT22;11538;48.884;8.696;2023-03-16T17:07:16;13.40;99.90
22742;DHT22;11538;48.884;8.696;2023-03-16T17:09:43;13.30;99.90
22742;DHT22;11538;48.884;8.696;2023-03-16T17:12:15;13.30;99.90
22742;DHT22;11538;48.884;8.696;2023-03-16T17:14:47;13.20;99.90
22742;DHT22;11538;48.884;8.696;2023-03-16T17:17:17;13.10;99.90
22742;DHT22;11538;48.884;8.696;2023-03-16T17:19:45;13.10;99.90
22742;DHT22;11538;48.884;8.696;2023-03-16T17:22:22;13.00;99.90
22742;DHT22;11538;48.884;8.696;2023-03-16T17:24:51;12.90;99.90
22742;DHT22;11538;48.884;8.696;2023-03-16T17:27:24;12.90;99.90
22742;DHT22;11538;48.884;8.696;2023-03-16T17:29:54;12.80;99.90
22742;DHT22;11538;48.884;8.696;2023-03-16T17:32:23;12.80;99.90
22742;DHT22;11538;48.884;8.696;2023-03-16T17:34:51;12.70;99.90